sensor_id;sensor_type;location;lat;lon;timestamp;temperature;humidity
54884;DHT22;40776;52.880;6.016;2022-08-11T01:27:56;16.60;99.90
54884;DHT22;40776;52.880;6.016;2022-08-11T02:24:13;16.10;99.90
54884;DHT22;40776;52.880;6.016;2022-08-11T04:09:04;15.20;99.90
54884;DHT22;40776;52.880;6.016;2022-08-11T04:41:17;15.20;99.90
54884;DHT22;40776;52.880;6.016;2022-08-11T06:52:36;21.00;99.90
54884;DHT22;40776;52.880;6.016;2022-08-11T06:57:36;21.60;99.90
54884;DHT22;40776;52.880;6.016;2022-08-11T07:00:23;21.50;99.90
54884;DHT22;40776;52.880;6.016;2022-08-11T07:14:40;21.70;99.90
54884;DHT22;40776;52.880;6.016;2022-08-11T07:17:25;22.00;99.90
54884;DHT22;40776;52.880;6.016;2022-08-11T07:19:57;22.20;99.90
54884;DHT22;40776;52.880;6.016;2022-08-11T07:22:48;22.50;99.90
54884;DHT22;40776;52.880;6.016;2022-08-11T07:25:38;22.50;99.90
54884;DHT22;40776;52.880;6.016;2022-08-11T07:28:25;23.00;99.90
54884;DHT22;40776;52.880;6.016;2022-08-11T07:31:23;23.10;99.90
54884;DHT22;40776;52.880;6.016;2022-08-11T07:33:55;23.40;99.90
54884;DHT22;40776;52.880;6.016;2022-08-11T07:36:24;23.30;99.90
54884;DHT22;40776;52.880;6.016;2022-08-11T07:38:53;23.30;99.90
54884;DHT22;40776;52.880;6.016;2022-08-11T07:41:22;23.30;99.90
54884;DHT22;40776;52.880;6.016;2022-08-11T07:43:51;23.50;99.90
54884;DHT22;40776;52.880;6.016;2022-08-11T07:46:20;23.60;99.90
54884;DHT22;40776;52.880;6.016;2022-08-11T07:49:07;24.20;99.90
54884;DHT22;40776;52.880;6.016;2022-08-11T07:51:53;24.20;99.90
54884;DHT22;40776;52.880;6.016;2022-08-11T07:54:38;24.20;99.90
54884;DHT22;40776;52.880;6.016;2022-08-11T07:57:08;24.70;99.90
54884;DHT22;40776;52.880;6.016;2022-08-11T07:59:54;24.70;99.90
54884;DHT22;40776;52.880;6.016;2022-08-11T08:02:40;24.70;99.90
54884;DHT22;40776;52.880;6.016;2022-08-11T08:05:26;24.80;99.90
54884;DHT22;40776;52.880;6.016;2022-08-11T08:08:14;25.00;99.90
54884;DHT22;40776;52.880;6.016;2022-08-11T08:10:59;25.20;99.90
54884;DHT22;40776;52.880;6.016;2022-08-11T08:13:45;24.70;99.90
54884;DHT22;40776;52.880;6.016;2022-08-11T08:16:29;24.90;99.90
54884;DHT22;40776;52.880;6.016;2022-08-11T08:19:15;25.10;99.90
54884;DHT22;40776;52.880;6.016;2022-08-11T08:21:42;25.20;99.90
54884;DHT22;40776;52.880;6.016;2022-08-11T08:24:09;25.90;99.90
54884;DHT22;40776;52.880;6.016;2022-08-11T08:26:35;26.10;99.90
54884;DHT22;40776;52.880;6.016;2022-08-11T08:29:21;25.80;99.90
54884;DHT22;40776;52.880;6.016;2022-08-11T08:32:06;25.80;99.90
54884;DHT22;40776;52.880;6.016;2022-08-11T08:34:36;25.80;99.90
54884;DHT22;40776;52.880;6.016;2022-08-11T08:37:03;26.20;99.90
54884;DHT22;40776;52.880;6.016;2022-08-11T08:39:30;26.40;99.90
54884;DHT22;40776;52.880;6.016;2022-08-11T08:42:03;26.50;99.90
54884;DHT22;40776;52.880;6.016;2022-08-11T08:44:33;26.60;99.90
54884;DHT22;40776;52.880;6.016;2022-08-11T08:47:00;27.30;99.90
54884;DHT22;40776;52.880;6.016;2022-08-11T08:49:37;27.50;99.90
54884;DHT22;40776;52.880;6.016;2022-08-11T08:52:05;28.50;99.90
54884;DHT22;40776;52.880;6.016;2022-08-11T08:54:37;27.80;99.90
54884;DHT22;40776;52.880;6.016;2022-08-11T08:57:08;27.80;99.90
54884;DHT22;40776;52.880;6.016;2022-08-11T08:59:40;28.00;99.90
54884;DHT22;40776;52.880;6.016;2022-08-11T09:02:07;27.90;99.90
54884;DHT22;40776;52.880;6.016;2022-08-11T09:04:39;28.00;99.90
54884;DHT22;40776;52.880;6.016;2022-08-11T09:07:10;28.00;99.90
54884;DHT22;40776;52.880;6.016;2022-08-11T09:09:44;28.00;99.90
54884;DHT22;40776;52.880;6.016;2022-08-11T09:12:11;28.20;99.90
54884;DHT22;40776;52.880;6.016;2022-08-11T09:14:42;28.80;99.90
54884;DHT22;40776;52.880;6.016;2022-08-11T09:17:48;28.30;99.90
54884;DHT22;40776;52.880;6.016;2022-08-11T09:20:36;28.60;99.90
54884;DHT22;40776;52.880;6.016;2022-08-11T09:23:07;28.80;99.90
54884;DHT22;40776;52.880;6.016;2022-08-11T09:25:55;28.60;99.90
54884;DHT22;40776;52.880;6.016;2022-08-11T09:28:44;28.20;99.90
54884;DHT22;40776;52.880;6.016;2022-08-11T09:31:11;28.80;99.90
54884;DHT22;40776;52.880;6.016;2022-08-11T09:33:39;28.60;99.90
54884;DHT22;40776;52.880;6.016;2022-08-11T09:36:07;28.80;99.90
54884;DHT22;40776;52.880;6.016;2022-08-11T09:38:55;29.00;99.90
54884;DHT22;40776;52.880;6.016;2022-08-11T09:41:42;29.00;99.50
54884;DHT22;40776;52.880;6.016;2022-08-11T09:44:09;29.10;99.30
54884;DHT22;40776;52.880;6.016;2022-08-11T09:46:55;29.30;99.80
54884;DHT22;40776;52.880;6.016;2022-08-11T09:49:25;29.60;99.20
54884;DHT22;40776;52.880;6.016;2022-08-11T09:51:53;29.60;98.00
54884;DHT22;40776;52.880;6.016;2022-08-11T09:54:19;29.50;98.30
54884;DHT22;40776;52.880;6.016;2022-08-11T09:56:47;29.60;97.70
54884;DHT22;40776;52.880;6.016;2022-08-11T09:59:35;29.60;98.00
54884;DHT22;40776;52.880;6.016;2022-08-11T10:02:01;29.70;97.50
54884;DHT22;40776;52.880;6.016;2022-08-11T10:04:39;29.80;97.40
54884;DHT22;40776;52.880;6.016;2022-08-11T10:07:08;29.90;97.40
54884;DHT22;40776;52.880;6.016;2022-08-11T10:09:49;30.10;96.70
54884;DHT22;40776;52.880;6.016;2022-08-11T10:12:25;30.00;96.40
54884;DHT22;40776;52.880;6.016;2022-08-11T10:15:20;30.20;97.40
54884;DHT22;40776;52.880;6.016;2022-08-11T10:20:58;30.40;95.90
54884;DHT22;40776;52.880;6.016;2022-08-11T10:23:26;30.60;95.10
54884;DHT22;40776;52.880;6.016;2022-08-11T10:26:11;30.90;95.50
54884;DHT22;40776;52.880;6.016;2022-08-11T10:28:56;30.60;95.20
54884;DHT22;40776;52.880;6.016;2022-08-11T10:31:22;30.40;94.30
54884;DHT22;40776;52.880;6.016;2022-08-11T10:34:08;30.40;95.30
54884;DHT22;40776;52.880;6.016;2022-08-11T10:36:41;30.30;94.70
54884;DHT22;40776;52.880;6.016;2022-08-11T10:39:17;30.60;94.20
54884;DHT22;40776;52.880;6.016;2022-08-11T10:41:47;30.90;94.70
54884;DHT22;40776;52.880;6.016;2022-08-11T10:44:53;30.70;94.10
54884;DHT22;40776;52.880;6.016;2022-08-11T10:47:20;31.00;94.80
54884;DHT22;40776;52.880;6.016;2022-08-11T10:50:09;30.80;94.00
54884;DHT22;40776;52.880;6.016;2022-08-11T10:52:55;31.10;94.10
54884;DHT22;40776;52.880;6.016;2022-08-11T10:55:42;30.70;93.70
54884;DHT22;40776;52.880;6.016;2022-08-11T10:58:27;30.50;94.30
54884;DHT22;40776;52.880;6.016;2022-08-11T11:01:11;30.70;93.10
54884;DHT22;40776;52.880;6.016;2022-08-11T11:03:40;30.90;93.20
54884;DHT22;40776;52.880;6.016;2022-08-11T11:06:34;31.10;92.90
54884;DHT22;40776;52.880;6.016;2022-08-11T11:09:16;30.90;92.40
54884;DHT22;40776;52.880;6.016;2022-08-11T11:11:50;30.80;92.90
54884;DHT22;40776;52.880;6.016;2022-08-11T11:14:36;30.90;92.60
54884;DHT22;40776;52.880;6.016;2022-08-11T11:17:27;31.00;92.80
54884;DHT22;40776;52.880;6.016;2022-08-11T11:20:16;30.70;92.30
54884;DHT22;40776;52.880;6.016;2022-08-11T11:22:43;31.20;92.50
54884;DHT22;40776;52.880;6.016;2022-08-11T11:25:17;31.10;92.20
54884;DHT22;40776;52.880;6.016;2022-08-11T11:30:19;31.00;92.50
54884;DHT22;40776;52.880;6.016;2022-08-11T11:35:52;30.70;92.00
54884;DHT22;40776;52.880;6.016;2022-08-11T11:38:24;30.90;91.70
54884;DHT22;40776;52.880;6.016;2022-08-11T11:40:50;30.80;93.00
54884;DHT22;40776;52.880;6.016;2022-08-11T11:43:36;31.00;92.00
54884;DHT22;40776;52.880;6.016;2022-08-11T11:46:04;31.10;91.50
54884;DHT22;40776;52.880;6.016;2022-08-11T11:48:31;31.20;91.30
54884;DHT22;40776;52.880;6.016;2022-08-11T11:50:57;31.20;91.00
54884;DHT22;40776;52.880;6.016;2022-08-11T11:53:24;31.30;91.20
54884;DHT22;40776;52.880;6.016;2022-08-11T11:55:50;31.00;91.70
54884;DHT22;40776;52.880;6.016;2022-08-11T11:58:16;31.20;91.30
54884;DHT22;40776;52.880;6.016;2022-08-11T12:01:00;31.10;91.50
54884;DHT22;40776;52.880;6.016;2022-08-11T12:03:46;32.10;92.30
54884;DHT22;40776;52.880;6.016;2022-08-11T12:06:14;31.40;91.40
54884;DHT22;40776;52.880;6.016;2022-08-11T12:08:42;31.80;91.10
54884;DHT22;40776;52.880;6.016;2022-08-11T12:11:10;31.60;91.10
54884;DHT22;40776;52.880;6.016;2022-08-11T12:13:57;31.60;91.10
54884;DHT22;40776;52.880;6.016;2022-08-11T12:16:24;31.50;90.70
54884;DHT22;40776;52.880;6.016;2022-08-11T12:18:53;31.80;91.00
54884;DHT22;40776;52.880;6.016;2022-08-11T12:21:20;31.70;90.70
54884;DHT22;40776;52.880;6.016;2022-08-11T12:23:49;31.20;91.00
54884;DHT22;40776;52.880;6.016;2022-08-11T12:26:33;31.40;91.40
54884;DHT22;40776;52.880;6.016;2022-08-11T12:29:19;31.60;91.20
54884;DHT22;40776;52.880;6.016;2022-08-11T12:31:46;31.90;90.20
54884;DHT22;40776;52.880;6.016;2022-08-11T12:34:15;31.20;90.80
54884;DHT22;40776;52.880;6.016;2022-08-11T12:37:04;32.10;91.30
54884;DHT22;40776;52.880;6.016;2022-08-11T12:39:36;30.50;90.40
54884;DHT22;40776;52.880;6.016;2022-08-11T12:42:21;30.90;91.30
54884;DHT22;40776;52.880;6.016;2022-08-11T12:45:10;31.40;91.20
54884;DHT22;40776;52.880;6.016;2022-08-11T12:48:06;31.20;90.80
54884;DHT22;40776;52.880;6.016;2022-08-11T12:50:55;31.50;89.70
54884;DHT22;40776;52.880;6.016;2022-08-11T12:56:36;31.50;90.20
54884;DHT22;40776;52.880;6.016;2022-08-11T12:59:24;31.80;90.00
54884;DHT22;40776;52.880;6.016;2022-08-11T13:02:20;31.90;89.50
54884;DHT22;40776;52.880;6.016;2022-08-11T13:05:07;31.70;90.20
54884;DHT22;40776;52.880;6.016;2022-08-11T13:07:34;31.30;90.20
54884;DHT22;40776;52.880;6.016;2022-08-11T13:10:04;31.70;90.10
54884;DHT22;40776;52.880;6.016;2022-08-11T13:12:31;31.50;88.90
54884;DHT22;40776;52.880;6.016;2022-08-11T13:15:20;30.90;89.40
54884;DHT22;40776;52.880;6.016;2022-08-11T13:17:48;31.20;90.70
54884;DHT22;40776;52.880;6.016;2022-08-11T13:20:18;31.50;90.20
54884;DHT22;40776;52.880;6.016;2022-08-11T13:22:47;31.10;88.00
54884;DHT22;40776;52.880;6.016;2022-08-11T13:25:14;31.30;89.70
54884;DHT22;40776;52.880;6.016;2022-08-11T13:27:45;31.00;89.30
54884;DHT22;40776;52.880;6.016;2022-08-11T13:30:15;30.80;89.60
54884;DHT22;40776;52.880;6.016;2022-08-11T13:33:00;30.80;90.30
54884;DHT22;40776;52.880;6.016;2022-08-11T13:35:29;31.40;89.20
54884;DHT22;40776;52.880;6.016;2022-08-11T13:37:57;31.60;90.00
54884;DHT22;40776;52.880;6.016;2022-08-11T13:40:26;31.60;88.60
54884;DHT22;40776;52.880;6.016;2022-08-11T13:42:53;31.70;88.90
54884;DHT22;40776;52.880;6.016;2022-08-11T13:45:22;31.80;88.20
54884;DHT22;40776;52.880;6.016;2022-08-11T13:47:49;31.80;88.40
54884;DHT22;40776;52.880;6.016;2022-08-11T13:50:19;31.80;88.60
54884;DHT22;40776;52.880;6.016;2022-08-11T13:52:46;31.90;89.60
54884;DHT22;40776;52.880;6.016;2022-08-11T13:55:16;31.80;87.80
54884;DHT22;40776;52.880;6.016;2022-08-11T13:57:56;31.70;89.40
54884;DHT22;40776;52.880;6.016;2022-08-11T14:00:21;31.50;88.00
54884;DHT22;40776;52.880;6.016;2022-08-11T14:02:52;31.40;88.10
54884;DHT22;40776;52.880;6.016;2022-08-11T14:05:24;31.20;89.30
54884;DHT22;40776;52.880;6.016;2022-08-11T14:08:02;31.40;89.80
54884;DHT22;40776;52.880;6.016;2022-08-11T14:10:31;31.10;89.40
54884;DHT22;40776;52.880;6.016;2022-08-11T14:13:02;31.30;89.70
54884;DHT22;40776;52.880;6.016;2022-08-11T14:15:51;31.20;89.70
54884;DHT22;40776;52.880;6.016;2022-08-11T14:18:25;31.20;89.40
54884;DHT22;40776;52.880;6.016;2022-08-11T14:20:54;31.50;88.80
54884;DHT22;40776;52.880;6.016;2022-08-11T14:23:46;31.60;89.50
54884;DHT22;40776;52.880;6.016;2022-08-11T14:26:16;31.40;87.90
54884;DHT22;40776;52.880;6.016;2022-08-11T14:28:54;31.30;87.40
54884;DHT22;40776;52.880;6.016;2022-08-11T14:31:22;31.20;85.60
54884;DHT22;40776;52.880;6.016;2022-08-11T14:33:52;31.20;88.70
54884;DHT22;40776;52.880;6.016;2022-08-11T14:36:20;31.30;88.80
54884;DHT22;40776;52.880;6.016;2022-08-11T14:38:48;31.30;87.90
54884;DHT22;40776;52.880;6.016;2022-08-11T14:41:16;31.50;88.60
54884;DHT22;40776;52.880;6.016;2022-08-11T14:44:01;31.50;87.40
54884;DHT22;40776;52.880;6.016;2022-08-11T14:46:46;31.30;86.60
54884;DHT22;40776;52.880;6.016;2022-08-11T14:49:36;31.00;87.60
54884;DHT22;40776;52.880;6.016;2022-08-11T14:52:13;31.40;88.20
54884;DHT22;40776;52.880;6.016;2022-08-11T14:54:42;31.30;87.30
54884;DHT22;40776;52.880;6.016;2022-08-11T14:57:28;31.50;87.90
54884;DHT22;40776;52.880;6.016;2022-08-11T14:59:59;32.10;86.40
54884;DHT22;40776;52.880;6.016;2022-08-11T15:02:26;32.70;85.30
54884;DHT22;40776;52.880;6.016;2022-08-11T15:05:11;33.20;85.70
54884;DHT22;40776;52.880;6.016;2022-08-11T15:07:37;33.60;85.80
54884;DHT22;40776;52.880;6.016;2022-08-11T15:10:06;33.90;84.60
54884;DHT22;40776;52.880;6.016;2022-08-11T15:12:34;33.50;83.00
54884;DHT22;40776;52.880;6.016;2022-08-11T15:15:02;34.30;83.30
54884;DHT22;40776;52.880;6.016;2022-08-11T15:17:49;34.50;82.00
54884;DHT22;40776;52.880;6.016;2022-08-11T15:20:17;35.00;81.50
54884;DHT22;40776;52.880;6.016;2022-08-11T15:23:02;35.50;81.30
54884;DHT22;40776;52.880;6.016;2022-08-11T15:26:08;35.70;79.60
54884;DHT22;40776;52.880;6.016;2022-08-11T15:28:38;35.50;78.50
54884;DHT22;40776;52.880;6.016;2022-08-11T15:31:25;35.60;78.80
54884;DHT22;40776;52.880;6.016;2022-08-11T15:34:04;35.30;79.10
54884;DHT22;40776;52.880;6.016;2022-08-11T15:36:50;35.20;78.50
54884;DHT22;40776;52.880;6.016;2022-08-11T15:39:46;34.80;78.40
54884;DHT22;40776;52.880;6.016;2022-08-11T15:42:46;35.60;78.60
54884;DHT22;40776;52.880;6.016;2022-08-11T15:45:33;35.40;75.70
54884;DHT22;40776;52.880;6.016;2022-08-11T15:50:49;34.10;77.10
54884;DHT22;40776;52.880;6.016;2022-08-11T15:53:38;33.80;80.20
54884;DHT22;40776;52.880;6.016;2022-08-11T15:56:05;34.90;78.70
54884;DHT22;40776;52.880;6.016;2022-08-11T15:58:45;35.80;77.80
54884;DHT22;40776;52.880;6.016;2022-08-11T16:01:29;35.70;74.00
54884;DHT22;40776;52.880;6.016;2022-08-11T16:04:20;35.50;76.30
54884;DHT22;40776;52.880;6.016;2022-08-11T16:09:44;36.70;76.30
54884;DHT22;40776;52.880;6.016;2022-08-11T16:12:15;35.70;76.90
54884;DHT22;40776;52.880;6.016;2022-08-11T16:14:45;35.50;76.00
54884;DHT22;40776;52.880;6.016;2022-08-11T16:17:55;33.80;78.00
54884;DHT22;40776;52.880;6.016;2022-08-11T16:20:23;33.70;80.00
54884;DHT22;40776;52.880;6.016;2022-08-11T16:22:52;33.30;80.40
54884;DHT22;40776;52.880;6.016;2022-08-11T16:25:21;33.70;80.90
54884;DHT22;40776;52.880;6.016;2022-08-11T16:27:58;33.70;79.70
54884;DHT22;40776;52.880;6.016;2022-08-11T16:30:28;34.30;78.50
54884;DHT22;40776;52.880;6.016;2022-08-11T16:32:55;34.70;78.70
54884;DHT22;40776;52.880;6.016;2022-08-11T16:35:24;35.20;77.80
54884;DHT22;40776;52.880;6.016;2022-08-11T16:38:10;35.40;77.80
54884;DHT22;40776;52.880;6.016;2022-08-11T16:40:57;34.50;79.30
54884;DHT22;40776;52.880;6.016;2022-08-11T16:43:28;34.20;79.70
54884;DHT22;40776;52.880;6.016;2022-08-11T16:46:16;33.80;80.90
54884;DHT22;40776;52.880;6.016;2022-08-11T16:49:07;33.70;82.10
54884;DHT22;40776;52.880;6.016;2022-08-11T16:51:35;33.60;80.30
54884;DHT22;40776;52.880;6.016;2022-08-11T16:54:01;33.30;82.40
54884;DHT22;40776;52.880;6.016;2022-08-11T16:56:44;33.70;81.80
54884;DHT22;40776;52.880;6.016;2022-08-11T16:59:32;34.60;81.40
54884;DHT22;40776;52.880;6.016;2022-08-11T17:02:11;33.90;81.20
54884;DHT22;40776;52.880;6.016;2022-08-11T17:05:02;33.40;83.70
54884;DHT22;40776;52.880;6.016;2022-08-11T17:07:50;32.30;84.10
54884;DHT22;40776;52.880;6.016;2022-08-11T17:11:08;32.20;85.80
54884;DHT22;40776;52.880;6.016;2022-08-11T17:14:04;32.20;85.30
54884;DHT22;40776;52.880;6.016;2022-08-11T17:16:34;32.40;85.40
54884;DHT22;40776;52.880;6.016;2022-08-11T17:19:07;32.40;84.90
54884;DHT22;40776;52.880;6.016;2022-08-11T17:21:46;32.50;84.60
54884;DHT22;40776;52.880;6.016;2022-08-11T17:24:36;32.60;84.80
54884;DHT22;40776;52.880;6.016;2022-08-11T17:27:03;32.50;84.90
54884;DHT22;40776;52.880;6.016;2022-08-11T17:30:06;32.90;85.90
54884;DHT22;40776;52.880;6.016;2022-08-11T17:32:36;31.40;87.20
54884;DHT22;40776;52.880;6.016;2022-08-11T17:35:24;31.00;89.60
54884;DHT22;40776;52.880;6.016;2022-08-11T17:38:08;31.10;89.50
54884;DHT22;40776;52.880;6.016;2022-08-11T17:40:37;31.10;88.20
54884;DHT22;40776;52.880;6.016;2022-08-11T17:43:06;30.70;90.50
54884;DHT22;40776;52.880;6.016;2022-08-11T17:45:54;30.50;90.50
54884;DHT22;40776;52.880;6.016;2022-08-11T17:48:40;30.60;90.30
54884;DHT22;40776;52.880;6.016;2022-08-11T17:51:11;29.60;91.30
54884;DHT22;40776;52.880;6.016;2022-08-11T17:53:59;29.30;91.70
54884;DHT22;40776;52.880;6.016;2022-08-11T17:56:45;29.80;92.80
54884;DHT22;40776;52.880;6.016;2022-08-11T17:59:30;28.20;93.10
54884;DHT22;40776;52.880;6.016;2022-08-11T18:02:18;27.20;95.90
54884;DHT22;40776;52.880;6.016;2022-08-11T18:05:04;27.00;96.50
54884;DHT22;40776;52.880;6.016;2022-08-11T18:07:31;26.70;95.60
54884;DHT22;40776;52.880;6.016;2022-08-11T18:10:17;26.90;95.50
54884;DHT22;40776;52.880;6.016;2022-08-11T18:13:04;26.60;95.40
54884;DHT22;40776;52.880;6.016;2022-08-11T18:15:49;26.50;95.80
54884;DHT22;40776;52.880;6.016;2022-08-11T18:18:34;26.50;97.30
54884;DHT22;40776;52.880;6.016;2022-08-11T18:21:20;26.40;95.90
54884;DHT22;40776;52.880;6.016;2022-08-11T18:24:11;26.20;97.80
54884;DHT22;40776;52.880;6.016;2022-08-11T18:26:59;26.10;97.90
54884;DHT22;40776;52.880;6.016;2022-08-11T18:29:48;25.80;97.20
54884;DHT22;40776;52.880;6.016;2022-08-11T18:35:19;25.40;97.50
54884;DHT22;40776;52.880;6.016;2022-08-11T18:38:09;25.60;97.50
54884;DHT22;40776;52.880;6.016;2022-08-11T18:46:32;25.00;98.40
54884;DHT22;40776;52.880;6.016;2022-08-11T18:49:26;24.80;98.70
54884;DHT22;40776;52.880;6.016;2022-08-11T18:57:46;24.70;99.30
54884;DHT22;40776;52.880;6.016;2022-08-11T19:14:29;23.80;99.90
54884;DHT22;40776;52.880;6.016;2022-08-11T19:20:05;23.50;99.90
